Ninaview, Colorado
Current Conditions -  °F | °C
As of 5:53 AM on Friday 24 Oct 2014 (Local Time) from KLHX Reporting Station
Clear Clear  
Wind Chill: 45°   Ceiling: Unl
Heat Index: 48°   Visibility: 10mi
Dew Point: 35°   Wind: 7mph
Humidity: 61%   Direction: 240°WSW
Pressure: 30.12"   Gusts: NA
Location:  37.8567°N, 103.111°W
Report Text: KLHX 241153Z AUTO 24006KT 10SM CLR 09/02 A3012 RMK AO2 SLP165 T00890017 10128 20078 55000
Loading
Personal Weather Stations






























Interactive Weather Map New forecast layout! Learn more

10-Day Weather Forecast

Advertisements
Track Severe Weather on mobile